Time;durP1;ratioP1;P1;durP2;ratioP2;P2;SDS_P1;SDS_P2;PMS_P1;PMS_P2;Temp;Humidity;BMP_temperature;BMP_pressure;BME280_temperature;BME280_humidity;BME280_pressure;Samples;Min_cycle;Max_cycle;Signal;HPM_P1;HPM_P2
2021/08/10 00:21:40;;;;;;;5.57;3.05;;;;;;;14.08;100.00;96119.38;1042056;28;20312;-71
2021/08/10 00:22:11;;;;;;;3.88;2.72;;;;;;;14.09;100.00;96115.69;1034655;28;20799;-71
2021/08/10 00:22:43;;;;;;;5.57;3.10;;;;;;;14.09;100.00;96118.34;1035859;28;20381;-71
2021/08/10 00:23:14;;;;;;;6.43;3.35;;;;;;;14.13;100.00;96122.00;1038685;28;20084;-70
2021/08/10 00:23:44;;;;;;;7.13;3.28;;;;;;;14.14;100.00;96120.94;1034766;28;20367;-72
2021/08/10 00:24:15;;;;;;;5.00;3.22;;;;;;;14.18;100.00;96127.22;1034759;28;20018;-71
2021/08/10 00:24:45;;;;;;;9.43;3.80;;;;;;;14.17;100.00;96130.16;1034686;28;20636;-71
2021/08/10 00:25:16;;;;;;;3.40;3.10;;;;;;;14.14;100.00;96120.94;1034670;28;20022;-71
2021/08/10 00:25:47;;;;;;;6.28;3.25;;;;;;;14.14;100.00;96129.63;1030712;28;20049;-72
2021/08/10 00:26:18;;;;;;;5.18;3.20;;;;;;;14.14;100.00;96134.13;1043111;28;20025;-71
2021/08/10 00:26:48;;;;;;;5.03;2.88;;;;;;;14.12;100.00;96126.50;1034648;28;20296;-69
2021/08/10 00:27:19;;;;;;;6.15;3.28;;;;;;;14.15;100.00;96127.78;1034767;28;20025;-71
2021/08/10 00:27:49;;;;;;;3.80;3.15;;;;;;;14.15;100.00;96130.41;1034545;28;20100;-73
2021/08/10 00:28:19;;;;;;;5.47;3.35;;;;;;;14.09;100.00;96124.41;1034694;28;20467;-72
2021/08/10 00:28:50;;;;;;;4.80;3.05;;;;;;;14.15;100.00;96128.59;1034892;28;20076;-71
2021/08/10 00:29:20;;;;;;;6.38;3.60;;;;;;;14.16;100.00;96126.72;1034876;28;20032;-70
2021/08/10 00:29:51;;;;;;;4.70;3.00;;;;;;;14.16;100.00;96126.72;1034506;28;20026;-71
2021/08/10 00:30:21;;;;;;;5.22;3.10;;;;;;;14.19;100.00;96128.81;1034852;28;20511;-71
2021/08/10 00:30:52;;;;;;;6.97;3.40;;;;;;;14.21;100.00;96128.53;1034630;28;20028;-71
2021/08/10 00:31:22;;;;;;;5.13;3.20;;;;;;;14.22;100.00;96123.00;1034533;28;20030;-71
2021/08/10 00:31:53;;;;;;;6.70;3.17;;;;;;;14.25;100.00;96126.91;1029840;28;20022;-70
2021/08/10 00:32:23;;;;;;;4.68;3.05;;;;;;;14.24;100.00;96135.91;1026703;28;20513;-71
2021/08/10 00:32:54;;;;;;;6.20;3.10;;;;;;;14.23;100.00;96124.56;1026757;28;20460;-71
2021/08/10 00:33:24;;;;;;;3.58;2.97;;;;;;;14.23;100.00;96131.69;1030564;28;20042;-70
2021/08/10 00:33:56;;;;;;;5.65;3.00;;;;;;;14.23;100.00;96123.78;1022613;28;20019;-70
2021/08/10 00:34:27;;;;;;;3.70;2.83;;;;;;;14.23;100.00;96121.13;1026775;28;20033;-71
2021/08/10 00:34:58;;;;;;;7.25;2.75;;;;;;;14.24;100.00;96125.34;1022859;28;20282;-71
2021/08/10 00:35:28;;;;;;;4.30;3.20;;;;;;;14.23;100.00;96129.84;1027004;28;20086;-71
2021/08/10 00:35:59;;;;;;;4.57;2.92;;;;;;;14.18;100.00;96110.59;1030556;28;20253;-71
2021/08/10 00:36:29;;;;;;;5.05;3.20;;;;;;;14.27;100.00;96125.56;1031535;28;20018;-70
2021/08/10 00:36:59;;;;;;;4.65;3.40;;;;;;;14.26;100.00;96125.88;1034829;28;20022;-71
2021/08/10 00:37:30;;;;;;;3.97;2.83;;;;;;;14.26;100.00;96124.00;1038860;28;20040;-70
2021/08/10 00:38:00;;;;;;;5.55;3.25;;;;;;;14.26;100.00;96129.28;1038699;28;20021;-69
2021/08/10 00:38:31;;;;;;;5.40;3.03;;;;;;;14.30;100.00;96130.31;1034624;28;20034;-71
2021/08/10 00:39:01;;;;;;;3.85;3.08;;;;;;;14.26;100.00;96125.88;1035013;28;20017;-71
2021/08/10 00:39:32;;;;;;;4.38;3.33;;;;;;;14.22;100.00;96116.91;1034687;28;20025;-71
2021/08/10 00:40:03;;;;;;;5.43;3.22;;;;;;;14.19;100.00;96117.47;1024895;28;20025;-70
2021/08/10 00:40:33;;;;;;;6.53;2.53;;;;;;;14.27;100.00;96124.78;1022546;29;20019;-71
2021/08/10 00:41:04;;;;;;;4.95;2.92;;;;;;;14.22;100.00;96114.25;1022853;29;20094;-71
2021/08/10 00:41:34;;;;;;;5.95;2.88;;;;;;;14.21;100.00;96121.41;1030105;28;20070;-70
2021/08/10 00:42:05;;;;;;;3.45;2.83;;;;;;;14.27;100.00;96124.78;1034352;28;20018;-71
2021/08/10 00:42:35;;;;;;;5.55;3.10;;;;;;;14.19;100.00;96114.84;1034348;28;20034;-71
2021/08/10 00:43:29;;;;;;;3.92;2.95;;;;;;;14.25;100.00;96119.00;1026938;28;20298;-71
2021/08/10 00:43:59;;;;;;;5.63;2.97;;;;;;;14.23;100.00;96121.91;1036256;28;20021;-71
2021/08/10 00:44:30;;;;;;;5.22;3.03;;;;;;;14.21;100.00;96124.03;1037789;28;20275;-71
2021/08/10 00:45:00;;;;;;;5.55;3.05;;;;;;;14.24;100.00;96123.50;1031303;28;20107;-71
2021/08/10 00:45:30;;;;;;;4.82;3.22;;;;;;;14.23;100.00;96124.56;1026799;28;20019;-71
2021/08/10 00:46:02;;;;;;;4.85;3.13;;;;;;;14.21;100.00;96126.69;1027915;28;20015;-70
2021/08/10 00:46:32;;;;;;;4.85;3.17;;;;;;;14.19;100.00;96123.53;1030914;28;20014;-71
2021/08/10 00:47:03;;;;;;;3.95;3.20;;;;;;;14.19;100.00;96128.03;1031863;28;20795;-71
2021/08/10 00:47:34;;;;;;;4.13;3.10;;;;;;;14.17;100.00;96122.22;1024839;28;20023;-71
2021/08/10 00:48:04;;;;;;;4.68;2.97;;;;;;;14.11;100.00;96121.47;1030946;28;20291;-71
2021/08/10 00:48:35;;;;;;;4.57;3.13;;;;;;;14.11;100.00;96121.47;1028884;28;20023;-70
2021/08/10 00:49:05;;;;;;;3.90;3.10;;;;;;;14.18;100.00;96129.09;1024533;28;20078;-70
2021/08/10 00:49:36;;;;;;;5.18;3.17;;;;;;;14.16;100.00;96129.38;1023122;28;20259;-69
2021/08/10 00:50:07;;;;;;;5.35;3.20;;;;;;;14.11;100.00;96121.47;1030703;28;20036;-71
2021/08/10 00:50:37;;;;;;;4.72;3.42;;;;;;;14.11;100.00;96130.16;1026654;28;20574;-71
2021/08/10 00:51:09;;;;;;;4.18;3.08;;;;;;;14.18;100.00;96127.22;1026788;28;20026;-71
2021/08/10 00:51:39;;;;;;;3.78;2.83;;;;;;;14.18;100.00;96127.22;1022344;29;20042;-67
2021/08/10 00:52:10;;;;;;;6.18;3.00;;;;;;;14.21;100.00;96126.69;1022753;29;20275;-70
2021/08/10 00:52:40;;;;;;;3.92;3.38;;;;;;;14.19;100.00;96120.91;1025532;28;20512;-71
2021/08/10 00:53:11;;;;;;;3.53;2.92;;;;;;;14.20;100.00;96126.97;1026587;28;20054;-70
2021/08/10 00:53:41;;;;;;;5.65;3.63;;;;;;;14.17;100.00;96120.38;1026652;28;20031;-70
2021/08/10 00:54:12;;;;;;;4.70;2.85;;;;;;;14.18;100.00;96121.94;1022004;29;20031;-71
2021/08/10 00:54:42;;;;;;;4.78;2.85;;;;;;;14.17;100.00;96124.88;1022724;28;20023;-70
2021/08/10 00:55:13;;;;;;;6.78;3.13;;;;;;;14.13;100.00;96116.72;1026801;28;20565;-70
2021/08/10 00:55:43;;;;;;;5.38;3.13;;;;;;;14.17;100.00;96125.66;1030890;28;20052;-71
2021/08/10 00:56:14;;;;;;;8.32;3.65;;;;;;;14.15;100.00;96127.78;1030453;28;20018;-71
2021/08/10 00:56:45;;;;;;;3.22;2.80;;;;;;;14.13;100.00;96124.63;1026496;28;20047;-71
2021/08/10 00:57:15;;;;;;;5.00;3.30;;;;;;;14.12;100.00;96129.13;1022513;29;20361;-71
2021/08/10 00:57:49;;;;;;;4.07;3.35;;;;;;;14.11;100.00;96124.13;1025228;28;20996;-70
2021/08/10 00:58:21;;;;;;;3.53;3.00;;;;;;;14.11;100.00;96126.75;1026804;28;20293;-71
2021/08/10 00:58:51;;;;;;;4.50;3.20;;;;;;;14.13;100.00;96124.63;1028102;28;20034;-70
2021/08/10 00:59:21;;;;;;;6.68;3.05;;;;;;;14.12;100.00;96129.13;1034778;28;20264;-70
2021/08/10 00:59:52;;;;;;;3.40;2.80;;;;;;;14.11;100.00;96129.38;1035005;28;20033;-71
2021/08/10 01:00:22;;;;;;;3.92;2.97;;;;;;;14.07;100.00;96120.44;1035046;28;20062;-70
2021/08/10 01:00:53;;;;;;;4.28;3.10;;;;;;;14.12;100.00;96123.06;1030919;28;20038;-71
2021/08/10 01:01:23;;;;;;;3.55;2.95;;;;;;;14.10;100.00;96122.53;1034594;28;20088;-71
2021/08/10 01:01:54;;;;;;;4.20;3.30;;;;;;;14.07;100.00;96123.09;1034375;28;20030;-71
2021/08/10 01:02:24;;;;;;;4.90;2.75;;;;;;;14.05;100.00;96123.38;1031033;28;20046;-71
2021/08/10 01:02:54;;;;;;;4.78;3.33;;;;;;;14.07;100.00;96117.81;1038847;28;20044;-71
2021/08/10 01:03:25;;;;;;;5.95;3.03;;;;;;;14.08;100.00;96122.84;1038936;28;20025;-73
2021/08/10 01:03:55;;;;;;;3.83;3.10;;;;;;;14.07;100.00;96115.19;1035186;28;20018;-71
2021/08/10 01:04:26;;;;;;;4.32;3.20;;;;;;;14.06;100.00;96109.13;1034878;28;20034;-71
2021/08/10 01:04:56;;;;;;;6.32;3.20;;;;;;;14.09;100.00;96116.47;1023052;29;20078;-71
2021/08/10 01:05:27;;;;;;;5.13;3.60;;;;;;;14.08;100.00;96117.56;1022860;28;20042;-71
2021/08/10 01:05:57;;;;;;;3.63;2.90;;;;;;;14.01;100.00;96103.06;1023006;29;20081;-71
2021/08/10 01:06:36;;;;;;;5.38;3.10;;;;;;;14.04;100.00;96121.78;1030797;28;20026;-71
2021/08/10 01:07:34;;;;;;;6.22;3.10;;;;;;;14.02;100.00;96113.38;1022884;29;20043;-71
2021/08/10 01:08:12;;;;;;;6.78;3.50;;;;;;;14.02;100.00;96112.59;1022668;28;20707;-71
2021/08/10 01:08:51;;;;;;;4.07;3.05;;;;;;;13.97;100.00;96116.03;1019260;29;20267;-71
2021/08/10 01:09:39;;;;;;;5.10;3.50;;;;;;;13.97;100.00;96115.25;1022119;29;20648;-71
2021/08/10 01:10:23;;;;;;;4.80;3.05;;;;;;;13.95;100.00;96112.91;1026849;28;20272;-68
2021/08/10 01:11:09;;;;;;;5.28;3.58;;;;;;;13.94;100.00;96110.53;1040479;28;20275;-71
2021/08/10 01:12:06;;;;;;;4.63;3.70;;;;;;;13.92;100.00;96108.16;1038365;28;20268;-66
2021/08/10 01:12:55;;;;;;;4.63;3.25;;;;;;;13.76;100.00;96085.59;1026055;28;20345;-71
2021/08/10 01:13:37;;;;;;;6.05;3.05;;;;;;;13.90;100.00;96113.69;1028468;28;20760;-71
2021/08/10 01:14:16;;;;;;;5.32;3.30;;;;;;;13.91;100.00;96117.91;1028185;28;20345;-71
2021/08/10 01:14:47;;;;;;;4.30;3.13;;;;;;;13.90;100.00;96116.34;1034615;28;20813;-71
2021/08/10 01:15:19;;;;;;;6.88;3.13;;;;;;;13.89;100.00;96122.69;1026432;28;20265;-70
2021/08/10 01:16:27;;;;;;;5.03;3.40;;;;;;;13.88;100.00;96123.75;1028103;28;20169;-71
2021/08/10 01:17:02;;;;;;;4.45;2.92;;;;;;;13.82;100.00;96118.78;1022901;28;20322;-72
2021/08/10 01:17:43;;;;;;;5.95;3.80;;;;;;;13.79;100.00;96109.56;1030070;28;20258;-71
2021/08/10 01:18:18;;;;;;;4.40;2.92;;;;;;;13.84;100.00;96121.91;1030931;28;20327;-71
2021/08/10 01:18:55;;;;;;;4.45;3.15;;;;;;;13.82;100.00;96124.84;1025550;28;20345;-71
2021/08/10 01:19:34;;;;;;;10.35;3.60;;;;;;;13.79;100.00;96120.13;1026986;28;20304;-71
2021/08/10 01:20:28;;;;;;;4.22;3.20;;;;;;;13.72;100.00;96114.34;1034193;28;20261;-71
2021/08/10 01:21:09;;;;;;;5.50;3.03;;;;;;;13.74;100.00;96121.97;1031169;28;20282;-71
2021/08/10 01:21:39;;;;;;;4.85;3.10;;;;;;;13.70;100.00;96113.03;1030340;28;20271;-67
2021/08/10 01:22:14;;;;;;;4.03;3.45;;;;;;;13.70;100.00;96113.03;1022624;29;20259;-71
2021/08/10 01:22:47;;;;;;;7.20;3.30;;;;;;;13.72;100.00;96119.63;1018801;29;20624;-71
2021/08/10 01:23:18;;;;;;;5.18;3.20;;;;;;;13.69;100.00;96114.91;1022966;29;20629;-71
2021/08/10 01:23:53;;;;;;;10.35;3.08;;;;;;;13.70;100.00;96121.75;1021840;29;20277;-70
2021/08/10 01:24:27;;;;;;;4.38;3.15;;;;;;;13.62;100.00;96117.06;1026844;28;20274;-69
2021/08/10 01:25:18;;;;;;;6.07;3.22;;;;;;;13.64;100.00;96123.59;1022704;29;20266;-71
2021/08/10 01:26:15;;;;;;;6.55;2.97;;;;;;;13.63;100.00;96113.34;1020822;29;20294;-71
2021/08/10 01:27:02;;;;;;;4.20;2.75;;;;;;;13.73;100.00;96121.19;1024244;28;20698;-70
2021/08/10 01:27:59;;;;;;;3.45;2.70;;;;;;;13.78;100.00;96123.81;1030968;28;20337;-70
2021/08/10 01:28:53;;;;;;;5.00;3.15;;;;;;;13.78;100.00;96118.53;1035676;28;20256;-71
2021/08/10 01:29:32;;;;;;;4.10;3.20;;;;;;;13.78;100.00;96123.81;1035540;28;20260;-70
2021/08/10 01:30:13;;;;;;;5.43;3.25;;;;;;;13.71;100.00;96106.69;1034226;28;20292;-70
2021/08/10 01:31:01;;;;;;;6.38;3.20;;;;;;;13.81;100.00;96117.97;1031658;28;20262;-70
2021/08/10 01:31:33;;;;;;;6.50;3.78;;;;;;;13.76;100.00;96104.84;1027631;28;20274;-70
2021/08/10 01:32:04;;;;;;;4.85;2.45;;;;;;;13.85;100.00;96119.03;1025617;28;20265;-70
2021/08/10 01:32:34;;;;;;;5.07;3.15;;;;;;;13.88;100.00;96113.19;1022597;28;20262;-71
2021/08/10 01:33:05;;;;;;;6.32;3.13;;;;;;;13.86;100.00;96115.31;1019781;29;20082;-71
2021/08/10 01:33:44;;;;;;;5.28;3.00;;;;;;;13.89;100.00;96114.78;1023642;29;20489;-71
2021/08/10 01:34:26;;;;;;;6.35;2.97;;;;;;;13.89;100.00;96109.50;1028492;28;20033;-70
2021/08/10 01:34:57;;;;;;;5.15;3.47;;;;;;;13.88;100.00;96110.56;1019569;29;20334;-70
2021/08/10 01:35:27;;;;;;;6.45;2.90;;;;;;;13.87;100.00;96101.06;1019617;29;20801;-71
2021/08/10 01:35:57;;;;;;;12.00;3.65;;;;;;;13.87;100.00;96101.06;1029358;28;20066;-72
2021/08/10 01:36:28;;;;;;;5.07;2.95;;;;;;;13.88;100.00;96107.13;1027516;28;20539;-70
2021/08/10 01:37:02;;;;;;;4.00;2.92;;;;;;;13.88;100.00;96104.47;1027610;28;20708;-71
2021/08/10 01:37:32;;;;;;;6.03;3.10;;;;;;;13.86;100.00;96102.13;1028286;28;20034;-70
2021/08/10 01:38:03;;;;;;;6.88;2.85;;;;;;;13.90;100.00;96102.38;1035716;28;20269;-71
2021/08/10 01:38:33;;;;;;;3.30;2.53;;;;;;;13.91;100.00;96102.06;1025889;28;20043;-70
2021/08/10 01:39:03;;;;;;;3.85;3.38;;;;;;;13.89;100.00;96098.94;1027696;28;20030;-70
2021/08/10 01:39:35;;;;;;;3.55;2.88;;;;;;;13.89;100.00;96091.03;1027540;28;20023;-70
2021/08/10 01:40:09;;;;;;;5.00;2.78;;;;;;;13.97;100.00;96105.47;1031514;28;20041;-69
2021/08/10 01:40:40;;;;;;;4.72;2.67;;;;;;;13.99;100.00;96097.31;1035657;28;20340;-70
2021/08/10 01:41:12;;;;;;;5.05;2.75;;;;;;;13.99;100.00;96102.59;1023608;29;20355;-71
2021/08/10 01:41:42;;;;;;;3.60;2.72;;;;;;;13.98;100.00;96096.50;1030963;28;20026;-70
2021/08/10 01:42:13;;;;;;;4.70;3.03;;;;;;;13.99;100.00;96097.31;1031065;28;20647;-71
2021/08/10 01:42:43;;;;;;;3.53;2.90;;;;;;;13.97;100.00;96094.13;1031530;28;20042;-71
2021/08/10 01:43:14;;;;;;;2.92;2.67;;;;;;;14.00;100.00;96099.66;1027544;28;20027;-71
2021/08/10 01:43:44;;;;;;;4.63;3.08;;;;;;;14.02;100.00;96099.41;1025268;28;20035;-70
2021/08/10 01:44:15;;;;;;;4.15;2.85;;;;;;;14.06;100.00;96100.41;1023683;28;20486;-71
2021/08/10 01:44:45;;;;;;;3.33;2.63;;;;;;;14.03;100.00;96108.88;1026560;28;20369;-71
2021/08/10 01:45:15;;;;;;;3.47;2.90;;;;;;;14.06;100.00;96105.69;1025175;28;20070;-68
2021/08/10 01:45:46;;;;;;;3.10;2.70;;;;;;;14.09;100.00;96102.50;1020903;29;20510;-70
2021/08/10 01:46:17;;;;;;;4.45;2.90;;;;;;;14.07;100.00;96104.63;1027257;28;20489;-71
2021/08/10 01:46:47;;;;;;;5.13;2.85;;;;;;;14.09;100.00;96097.22;1031219;28;20061;-70
2021/08/10 01:47:18;;;;;;;3.67;2.88;;;;;;;14.07;100.00;96094.06;1033971;28;20060;-71
2021/08/10 01:47:48;;;;;;;5.20;2.55;;;;;;;14.08;100.00;96095.63;1031446;28;20019;-70
2021/08/10 01:48:19;;;;;;;4.70;2.72;;;;;;;14.08;100.00;96095.63;1031317;28;20080;-71
2021/08/10 01:48:50;;;;;;;10.68;2.88;;;;;;;14.08;100.00;96098.28;1028540;28;20027;-71
2021/08/10 01:49:22;;;;;;;5.13;2.97;;;;;;;14.10;100.00;96098.78;1031338;28;20076;-70
2021/08/10 01:49:52;;;;;;;5.30;2.78;;;;;;;14.09;100.00;96099.88;1027339;28;20453;-71
2021/08/10 01:50:23;;;;;;;8.88;3.33;;;;;;;14.10;100.00;96099.56;1026681;28;20277;-71
2021/08/10 01:50:54;;;;;;;3.15;2.85;;;;;;;14.08;100.00;96095.63;1019279;29;20059;-72
2021/08/10 01:51:26;;;;;;;4.50;2.88;;;;;;;14.07;100.00;96094.84;1027252;28;20498;-71
2021/08/10 01:51:57;;;;;;;3.92;2.80;;;;;;;14.08;100.00;96099.09;1022023;28;20030;-71
2021/08/10 01:52:27;;;;;;;5.47;2.50;;;;;;;14.03;100.00;96091.19;1023049;29;20445;-71
2021/08/10 01:52:58;;;;;;;3.85;2.60;;;;;;;14.04;100.00;96090.13;1027231;28;20026;-69
2021/08/10 01:53:28;;;;;;;4.47;3.20;;;;;;;14.04;100.00;96082.19;1023329;29;20505;-71
2021/08/10 01:53:59;;;;;;;5.28;3.10;;;;;;;14.08;100.00;96093.00;1021044;29;20015;-71
2021/08/10 01:54:30;;;;;;;5.00;3.08;;;;;;;14.01;100.00;96085.38;1019462;29;20015;-71
2021/08/10 01:55:00;;;;;;;4.78;2.80;;;;;;;14.07;100.00;96091.44;1027354;28;20015;-72
2021/08/10 01:55:30;;;;;;;4.85;2.63;;;;;;;14.06;100.00;96092.50;1027740;28;20011;-70
2021/08/10 01:56:01;;;;;;;4.88;3.10;;;;;;;14.04;100.00;96089.34;1031445;28;20039;-71
2021/08/10 01:56:31;;;;;;;4.68;2.90;;;;;;;14.00;100.00;96085.69;1023449;28;20036;-71
2021/08/10 01:57:02;;;;;;;6.32;2.85;;;;;;;14.04;100.00;96089.34;1023404;28;20030;-71
2021/08/10 01:57:32;;;;;;;4.05;2.50;;;;;;;14.03;100.00;96095.69;1030418;28;20029;-71
2021/08/10 01:58:03;;;;;;;4.45;3.22;;;;;;;13.97;100.00;96088.88;1027471;28;20485;-70
2021/08/10 01:58:33;;;;;;;3.10;2.53;;;;;;;14.04;100.00;96099.88;1019547;29;20486;-71
2021/08/10 01:59:03;;;;;;;4.72;2.72;;;;;;;14.05;100.00;96096.19;1022270;29;20015;-71
2021/08/10 01:59:34;;;;;;;3.42;2.72;;;;;;;14.05;100.00;96090.91;1019198;29;20023;-71
2021/08/10 02:00:05;;;;;;;4.20;2.83;;;;;;;14.07;100.00;96099.34;1027369;28;20014;-70
2021/08/10 02:00:36;;;;;;;4.32;2.58;;;;;;;14.07;100.00;96091.44;1026655;28;20449;-71
2021/08/10 02:01:06;;;;;;;4.95;2.70;;;;;;;14.09;100.00;96091.94;1024637;28;20019;-71
2021/08/10 02:01:38;;;;;;;3.22;2.42;;;;;;;14.04;100.00;96087.47;1023286;29;20564;-70
2021/08/10 02:02:08;;;;;;;5.53;2.63;;;;;;;14.10;100.00;96093.50;1022657;29;20081;-71
2021/08/10 02:02:39;;;;;;;4.88;2.85;;;;;;;14.10;100.00;96093.50;1022991;28;20031;-73
2021/08/10 02:03:11;;;;;;;4.35;2.63;;;;;;;14.03;100.00;96085.91;1027368;28;20021;-71
2021/08/10 02:03:42;;;;;;;6.43;2.85;;;;;;;14.08;100.00;96093.00;1027212;28;20250;-71
2021/08/10 02:04:12;;;;;;;2.95;2.35;;;;;;;14.08;100.00;96095.63;1023101;29;20701;-71
2021/08/10 02:04:43;;;;;;;3.35;2.60;;;;;;;14.07;100.00;96092.22;1027407;28;20101;-72
2021/08/10 02:05:14;;;;;;;4.10;2.78;;;;;;;14.06;100.00;96097.78;1027154;28;20546;-71
2021/08/10 02:05:45;;;;;;;3.70;2.80;;;;;;;14.06;100.00;96092.50;1023362;28;20019;-70
2021/08/10 02:06:15;;;;;;;3.70;2.85;;;;;;;14.06;100.00;96095.13;1027262;28;20470;-71
2021/08/10 02:06:46;;;;;;;4.80;2.45;;;;;;;14.03;100.00;96093.03;1026475;28;20022;-71
2021/08/10 02:07:18;;;;;;;3.95;2.88;;;;;;;14.01;100.00;96095.94;1030396;28;20014;-71
2021/08/10 02:07:48;;;;;;;7.60;3.20;;;;;;;13.99;100.00;96092.03;1022797;28;20345;-70
2021/08/10 02:08:19;;;;;;;6.22;2.83;;;;;;;13.97;100.00;96089.66;1023362;29;20303;-70
2021/08/10 02:08:50;;;;;;;5.97;2.55;;;;;;;13.98;100.00;96088.56;1031317;28;20034;-70
2021/08/10 02:09:21;;;;;;;3.83;2.72;;;;;;;14.00;100.00;96090.97;1027041;28;20023;-70
2021/08/10 02:09:53;;;;;;;3.22;2.67;;;;;;;13.98;100.00;96091.22;1027206;28;20035;-70
2021/08/10 02:10:23;;;;;;;3.67;2.63;;;;;;;13.94;100.00;96090.19;1031289;28;20014;-70
2021/08/10 02:10:54;;;;;;;3.13;2.53;;;;;;;13.93;100.00;96088.63;1030910;28;20289;-70
2021/08/10 02:11:24;;;;;;;3.72;2.50;;;;;;;13.96;100.00;96092.56;1019344;29;20031;-70
2021/08/10 02:11:55;;;;;;;2.88;2.50;;;;;;;13.94;100.00;96098.09;1022411;29;20030;-69
2021/08/10 02:12:25;;;;;;;4.75;2.83;;;;;;;13.87;100.00;96090.50;1019354;29;20024;-70
2021/08/10 02:12:56;;;;;;;5.10;2.72;;;;;;;13.85;100.00;96083.94;1026603;28;20022;-71
2021/08/10 02:13:27;;;;;;;6.57;2.67;;;;;;;13.89;100.00;96091.03;1027233;28;20027;-69
2021/08/10 02:13:57;;;;;;;4.85;2.80;;;;;;;13.88;100.00;96091.28;1023219;29;20030;-70
2021/08/10 02:14:28;;;;;;;4.43;2.92;;;;;;;13.86;100.00;96094.22;1026544;28;20018;-70
2021/08/10 02:14:58;;;;;;;4.93;3.03;;;;;;;13.86;100.00;96093.44;1035488;28;20622;-70
2021/08/10 02:15:29;;;;;;;3.05;2.72;;;;;;;13.87;100.00;96098.41;1031322;28;20052;-70
2021/08/10 02:15:59;;;;;;;4.82;2.80;;;;;;;13.86;100.00;96094.22;1026562;28;20027;-69
2021/08/10 02:16:30;;;;;;;4.38;2.92;;;;;;;13.83;100.00;96097.41;1031372;28;20025;-70
2021/08/10 02:17:01;;;;;;;4.60;2.88;;;;;;;13.83;100.00;96092.13;1027427;28;20106;-70
2021/08/10 02:17:31;;;;;;;4.63;2.67;;;;;;;13.83;100.00;96092.13;1031213;28;20022;-71
2021/08/10 02:18:02;;;;;;;3.78;2.90;;;;;;;13.81;100.00;96088.19;1031029;28;20269;-70
2021/08/10 02:18:32;;;;;;;5.88;2.70;;;;;;;13.80;100.00;96095.31;1027305;28;20111;-71
2021/08/10 02:19:03;;;;;;;4.93;2.47;;;;;;;13.76;100.00;96099.56;1031270;28;20026;-70
2021/08/10 02:19:34;;;;;;;5.47;2.72;;;;;;;13.76;100.00;96098.78;1033321;28;20109;-70
2021/08/10 02:20:05;;;;;;;6.35;3.38;;;;;;;13.67;100.00;96091.41;1027378;28;20129;-71
2021/08/10 02:20:35;;;;;;;3.95;3.15;;;;;;;13.61;100.00;96089.09;1023187;29;20019;-71
2021/08/10 02:21:09;;;;;;;5.90;2.83;;;;;;;13.68;100.00;96094.84;1019809;29;20031;-71
2021/08/10 02:21:49;;;;;;;4.75;2.75;;;;;;;13.69;100.00;96099.06;1031147;28;20030;-65
2021/08/10 02:22:19;;;;;;;2.97;2.65;;;;;;;13.61;100.00;96081.19;1026852;28;20281;-69
2021/08/10 02:22:50;;;;;;;8.80;3.38;;;;;;;13.69;100.00;96093.81;1023030;29;20810;-71
2021/08/10 02:23:20;;;;;;;3.60;2.70;;;;;;;13.67;100.00;96096.69;1027243;28;20030;-71
2021/08/10 02:23:56;;;;;;;4.70;3.35;;;;;;;13.65;100.00;96093.56;1019433;29;20024;-71
2021/08/10 02:24:30;;;;;;;4.97;3.05;;;;;;;13.62;100.00;96088.03;1020539;28;20028;-69
2021/08/10 02:25:03;;;;;;;4.32;2.63;;;;;;;13.59;100.00;96083.31;1023452;29;20267;-71
2021/08/10 02:25:33;;;;;;;5.70;2.85;;;;;;;13.63;100.00;96090.41;1019256;29;20287;-71
2021/08/10 02:26:04;;;;;;;6.63;3.15;;;;;;;13.63;100.00;96092.25;1027357;28;20605;-70
2021/08/10 02:26:44;;;;;;;4.93;3.08;;;;;;;13.62;100.00;96088.81;1022800;29;20045;-71
2021/08/10 02:27:23;;;;;;;3.28;2.53;;;;;;;13.64;100.00;96089.31;1032634;28;20033;-71
2021/08/10 02:27:57;;;;;;;5.47;2.95;;;;;;;13.69;100.00;96093.81;1030097;28;20280;-69
2021/08/10 02:28:27;;;;;;;4.45;2.90;;;;;;;13.67;100.00;96090.63;1019217;29;20303;-71
2021/08/10 02:28:58;;;;;;;5.50;2.83;;;;;;;13.60;100.00;96079.59;1019249;29;20268;-70
2021/08/10 02:29:31;;;;;;;6.18;3.22;;;;;;;13.67;100.00;96093.28;1031281;28;20026;-71
2021/08/10 02:30:09;;;;;;;4.90;2.80;;;;;;;13.67;100.00;96090.63;1034676;28;20026;-69
2021/08/10 02:30:39;;;;;;;6.18;2.72;;;;;;;13.62;100.00;96077.50;1031052;28;20869;-71
2021/08/10 02:31:10;;;;;;;4.65;2.58;;;;;;;13.66;100.00;96086.44;1030873;28;20278;-72
2021/08/10 02:31:40;;;;;;;7.28;3.42;;;;;;;13.64;100.00;96091.19;1030523;28;20117;-68
2021/08/10 02:32:12;;;;;;;5.40;3.10;;;;;;;13.63;100.00;96089.63;1027087;28;20022;-71
2021/08/10 02:32:43;;;;;;;3.33;2.92;;;;;;;13.62;100.00;96090.69;1019140;29;20761;-71
2021/08/10 02:33:13;;;;;;;7.18;3.10;;;;;;;13.60;100.00;96087.53;1019163;29;20647;-70
2021/08/10 02:33:44;;;;;;;6.22;2.90;;;;;;;13.53;100.00;96079.13;1027224;28;20261;-71
2021/08/10 02:34:14;;;;;;;3.72;2.97;;;;;;;13.52;100.00;96080.97;1027352;28;20030;-70
2021/08/10 02:34:45;;;;;;;6.90;3.00;;;;;;;13.52;100.00;96088.88;1026796;28;20106;-71
2021/08/10 02:35:20;;;;;;;7.00;2.90;;;;;;;13.57;100.00;96085.44;1019338;29;20126;-71
2021/08/10 02:35:53;;;;;;;7.15;3.20;;;;;;;13.56;100.00;96083.84;1027298;28;20519;-71
2021/08/10 02:36:23;;;;;;;3.70;2.97;;;;;;;13.54;100.00;96091.25;1030768;28;20593;-71
2021/08/10 02:36:55;;;;;;;3.67;2.70;;;;;;;13.46;100.00;96081.28;1024159;28;20270;-70
2021/08/10 02:37:25;;;;;;;6.82;3.28;;;;;;;13.48;100.00;96082.59;1027269;28;20046;-72
2021/08/10 02:37:58;;;;;;;3.17;2.80;;;;;;;13.43;100.00;96083.38;1023522;28;20665;-70
2021/08/10 02:38:28;;;;;;;4.50;2.70;;;;;;;13.46;100.00;96081.28;1027150;28;20080;-71
2021/08/10 02:39:03;;;;;;;5.03;2.80;;;;;;;13.48;100.00;96081.78;1035223;28;20315;-71
2021/08/10 02:39:34;;;;;;;3.50;3.05;;;;;;;13.40;100.00;96072.59;1027250;28;20038;-71
2021/08/10 02:40:07;;;;;;;5.68;2.83;;;;;;;13.43;100.00;96080.75;1027443;28;20692;-69
2021/08/10 02:40:37;;;;;;;4.55;2.95;;;;;;;13.44;100.00;96077.03;1027113;28;20358;-71
2021/08/10 02:41:07;;;;;;;3.65;3.10;;;;;;;13.49;100.00;96084.16;1026955;28;20278;-71
2021/08/10 02:41:38;;;;;;;4.32;2.80;;;;;;;13.51;100.00;96086.50;1022372;28;20031;-73
2021/08/10 02:42:08;;;;;;;4.30;3.22;;;;;;;13.46;100.00;96078.63;1018524;29;20033;-71
2021/08/10 02:42:39;;;;;;;4.32;3.22;;;;;;;13.42;100.00;96062.59;1023211;29;20023;-71
2021/08/10 02:43:09;;;;;;;5.78;3.30;;;;;;;13.50;100.00;96079.66;1015285;29;20020;-71
2021/08/10 02:43:40;;;;;;;3.15;2.70;;;;;;;13.47;100.00;96077.56;1026256;28;20027;-71
2021/08/10 02:44:11;;;;;;;6.03;2.90;;;;;;;13.51;100.00;96081.25;1027216;28;20027;-71
2021/08/10 02:44:41;;;;;;;3.83;3.08;;;;;;;13.46;100.00;96070.72;1023219;29;20031;-71
2021/08/10 02:45:12;;;;;;;7.10;3.35;;;;;;;13.51;100.00;96081.25;1026948;28;20045;-71
2021/08/10 02:45:43;;;;;;;7.50;3.30;;;;;;;13.52;100.00;96078.34;1027385;28;20058;-71
2021/08/10 02:46:13;;;;;;;3.60;2.95;;;;;;;13.53;100.00;96073.84;1031274;28;20026;-71
2021/08/10 02:46:43;;;;;;;3.20;2.90;;;;;;;13.56;100.00;96073.31;1034192;28;20096;-71
2021/08/10 02:47:14;;;;;;;6.88;3.00;;;;;;;13.56;100.00;96068.03;1031194;28;20037;-70
2021/08/10 02:47:51;;;;;;;5.03;3.20;;;;;;;13.57;100.00;96078.28;1019107;29;20023;-71
2021/08/10 02:48:21;;;;;;;6.57;2.85;;;;;;;13.58;100.00;96076.44;1019665;28;20064;-71
2021/08/10 02:48:52;;;;;;;4.57;2.80;;;;;;;13.58;100.00;96071.16;1019270;29;20741;-70
2021/08/10 02:49:22;;;;;;;3.35;2.72;;;;;;;13.58;100.00;96071.16;1021945;28;20044;-71
2021/08/10 02:49:53;;;;;;;4.93;3.05;;;;;;;13.57;100.00;96070.38;1031316;28;20022;-71
2021/08/10 02:50:25;;;;;;;4.05;3.03;;;;;;;13.57;100.00;96082.78;1034908;28;20025;-71
2021/08/10 02:50:55;;;;;;;4.15;3.00;;;;;;;13.55;100.00;96072.53;1031278;28;20037;-73
2021/08/10 02:51:26;;;;;;;5.00;3.00;;;;;;;13.54;100.00;96078.84;1030992;28;20356;-71
2021/08/10 02:51:56;;;;;;;5.72;3.22;;;;;;;13.53;100.00;96076.50;1030097;28;20575;-71
2021/08/10 02:52:26;;;;;;;5.75;3.00;;;;;;;13.50;100.00;96074.41;1031350;28;20374;-69
2021/08/10 02:52:57;;;;;;;5.47;2.97;;;;;;;13.53;100.00;96076.50;1035238;28;20033;-71